createdAt,value
2018-06-30T00:00:18.553Z,992.68
2018-06-30T00:01:28.435Z,992.66
2018-06-30T00:02:38.596Z,992.65
2018-06-30T00:03:47.931Z,992.68
2018-06-30T00:04:58.149Z,992.63
2018-06-30T00:06:08.004Z,992.64
2018-06-30T00:07:18.105Z,992.67
2018-06-30T00:08:28.200Z,992.63
2018-06-30T00:09:38.294Z,992.66
2018-06-30T00:10:48.134Z,992.64
2018-06-30T00:11:58.211Z,992.57
2018-06-30T00:13:08.308Z,992.54
2018-06-30T00:14:18.457Z,992.59
2018-06-30T00:15:28.604Z,992.61
2018-06-30T00:16:38.733Z,992.53
2018-06-30T00:17:48.811Z,992.54
2018-06-30T00:18:58.623Z,992.54
2018-06-30T00:20:08.450Z,992.54
2018-06-30T00:21:18.524Z,992.56
2018-06-30T00:22:28.625Z,992.53
2018-06-30T00:23:38.705Z,992.54
2018-06-30T00:24:48.806Z,992.5
2018-06-30T00:25:58.355Z,992.55
2018-06-30T00:27:08.449Z,992.53
2018-06-30T00:28:18.534Z,992.54
2018-06-30T00:29:28.638Z,992.56
2018-06-30T00:30:38.443Z,992.56
2018-06-30T00:31:48.575Z,992.59
2018-06-30T00:32:58.380Z,992.57
2018-06-30T00:34:08.479Z,992.57
2018-06-30T00:35:18.551Z,992.54
2018-06-30T00:36:28.652Z,992.49
2018-06-30T00:37:38.738Z,992.52
2018-06-30T00:38:49.064Z,992.53
2018-06-30T00:39:59.154Z,992.53
2018-06-30T00:41:08.975Z,992.52
2018-06-30T00:42:18.789Z,992.49
2018-06-30T00:43:28.857Z,992.52
2018-06-30T00:44:38.934Z,992.51
2018-06-30T00:45:49.023Z,992.52
2018-06-30T00:46:58.838Z,992.5
2018-06-30T00:48:08.908Z,992.47
2018-06-30T00:49:19.014Z,992.5
2018-06-30T00:50:29.096Z,992.45
2018-06-30T00:51:39.218Z,992.47
2018-06-30T00:52:49.041Z,992.42
2018-06-30T00:53:58.858Z,992.41
2018-06-30T00:55:08.927Z,992.41
2018-06-30T00:56:19.001Z,992.41
2018-06-30T00:57:29.072Z,992.4
2018-06-30T00:58:38.873Z,992.36
2018-06-30T00:59:48.949Z,992.37
2018-06-30T01:00:58.773Z,992.38
2018-06-30T01:02:08.834Z,992.44
2018-06-30T01:03:18.903Z,992.37
2018-06-30T01:04:29.033Z,992.41
2018-06-30T01:05:39.124Z,992.35
2018-06-30T01:06:49.239Z,992.38
2018-06-30T01:07:59.038Z,992.37
2018-06-30T01:09:09.100Z,992.36
2018-06-30T01:10:18.922Z,992.35
2018-06-30T01:11:28.989Z,992.39
2018-06-30T01:12:38.790Z,992.34
2018-06-30T01:13:48.601Z,992.3
2018-06-30T01:14:58.689Z,992.37
2018-06-30T01:16:08.755Z,992.34
2018-06-30T01:17:18.829Z,992.34
2018-06-30T01:18:28.922Z,992.3
2018-06-30T01:19:39.005Z,992.33
2018-06-30T01:20:49.082Z,992.32
2018-06-30T01:21:59.180Z,992.3
2018-06-30T01:23:09.261Z,992.33
2018-06-30T01:24:19.382Z,992.32
2018-06-30T01:25:29.197Z,992.33
2018-06-30T01:26:39.300Z,992.3
2018-06-30T01:27:49.379Z,992.28
2018-06-30T01:28:59.468Z,992.31
2018-06-30T01:30:09.604Z,992.29
2018-06-30T01:31:19.145Z,992.29
2018-06-30T01:32:29.227Z,992.33
2018-06-30T01:33:39.033Z,992.32
2018-06-30T01:34:49.108Z,992.31
2018-06-30T01:35:59.177Z,992.26
2018-06-30T01:37:08.979Z,992.27
2018-06-30T01:38:18.537Z,992.29
2018-06-30T01:39:28.623Z,992.35
2018-06-30T01:40:38.432Z,992.32
2018-06-30T01:41:48.495Z,992.38
2018-06-30T01:42:58.313Z,992.32
2018-06-30T01:44:08.395Z,992.32
2018-06-30T01:45:18.483Z,992.38
2018-06-30T01:46:28.327Z,992.32
2018-06-30T01:47:38.432Z,992.33
2018-06-30T01:48:48.507Z,992.37
2018-06-30T01:49:58.625Z,992.35
2018-06-30T01:51:08.486Z,992.35
2018-06-30T01:52:18.589Z,992.39
2018-06-30T01:53:28.406Z,992.39
2018-06-30T01:54:38.485Z,992.45
2018-06-30T01:55:48.559Z,992.37
2018-06-30T01:56:58.629Z,992.38
2018-06-30T01:58:08.177Z,992.41
2018-06-30T01:59:18.278Z,992.39
2018-06-30T02:00:28.091Z,992.47
2018-06-30T02:01:38.180Z,992.44
2018-06-30T02:02:48.253Z,992.47
2018-06-30T02:03:58.311Z,992.43
2018-06-30T02:05:08.383Z,992.47
2018-06-30T02:06:18.224Z,992.47
2018-06-30T02:07:28.306Z,992.5
2018-06-30T02:08:38.364Z,992.51
2018-06-30T02:09:48.178Z,992.52
2018-06-30T02:10:58.264Z,992.56
2018-06-30T02:12:08.321Z,992.51
2018-06-30T02:13:18.390Z,992.49
2018-06-30T02:14:28.470Z,992.49
2018-06-30T02:15:38.537Z,992.5
2018-06-30T02:16:48.619Z,992.5
2018-06-30T02:17:58.427Z,992.48
2018-06-30T02:19:08.505Z,992.51
2018-06-30T02:20:18.593Z,992.46
2018-06-30T02:21:28.691Z,992.49
2018-06-30T02:22:38.901Z,992.53
2018-06-30T02:23:48.995Z,992.51
2018-06-30T02:24:59.071Z,992.56
2018-06-30T02:26:08.892Z,992.54
2018-06-30T02:27:18.694Z,992.49
2018-06-30T02:28:28.621Z,992.54
2018-06-30T02:29:38.684Z,992.5
2018-06-30T02:30:48.514Z,992.51
2018-06-30T02:31:58.322Z,992.51
2018-06-30T02:33:08.407Z,992.49
2018-06-30T02:34:18.266Z,992.47
2018-06-30T02:35:28.073Z,992.47
2018-06-30T02:36:38.170Z,992.46
2018-06-30T02:37:47.974Z,992.46
2018-06-30T02:38:58.106Z,992.43
2018-06-30T02:40:08.295Z,992.48
2018-06-30T02:41:18.368Z,992.43
2018-06-30T02:42:28.449Z,992.45
2018-06-30T02:43:38.530Z,992.48
2018-06-30T02:44:48.342Z,992.43
2018-06-30T02:45:58.229Z,992.45
2018-06-30T02:47:09.054Z,992.44
2018-06-30T02:48:19.136Z,992.44
2018-06-30T02:49:29.256Z,992.41
2018-06-30T02:50:39.330Z,992.49
2018-06-30T02:51:49.133Z,992.48
2018-06-30T02:52:59.220Z,992.48
2018-06-30T02:54:09.024Z,992.5
2018-06-30T02:55:19.098Z,992.54
2018-06-30T02:56:29.164Z,992.54
2018-06-30T02:57:39.222Z,992.52
2018-06-30T02:58:49.295Z,992.56
2018-06-30T02:59:59.384Z,992.61
2018-06-30T03:01:09.482Z,992.6
2018-06-30T03:02:19.568Z,992.61
2018-06-30T03:34:36.914Z,992.63
2018-06-30T03:35:46.962Z,992.68
2018-06-30T03:36:57.025Z,992.65
2018-06-30T03:38:07.095Z,992.65
2018-06-30T03:39:16.905Z,992.68
2018-06-30T03:40:27.019Z,992.69
2018-06-30T03:41:37.100Z,992.76
2018-06-30T03:42:47.167Z,992.78
2018-06-30T03:43:57.263Z,992.78
2018-06-30T03:45:07.334Z,992.82
2018-06-30T03:46:17.487Z,992.84
2018-06-30T03:47:27.514Z,992.83
2018-06-30T03:48:37.582Z,992.81
2018-06-30T03:49:47.638Z,992.79
2018-06-30T03:50:57.449Z,992.79
2018-06-30T03:52:07.534Z,992.82
2018-06-30T03:53:17.594Z,992.8
2018-06-30T03:54:27.664Z,992.86
2018-06-30T03:55:37.740Z,992.85
2018-06-30T03:56:47.814Z,992.87
2018-06-30T03:57:57.636Z,992.85
2018-06-30T03:59:07.711Z,992.79
2018-06-30T04:00:17.508Z,992.81
2018-06-30T04:01:27.585Z,992.79
2018-06-30T04:02:37.406Z,992.84
2018-06-30T04:03:47.213Z,992.85
2018-06-30T04:04:56.757Z,992.88
2018-06-30T04:06:06.833Z,992.82
2018-06-30T04:07:16.898Z,992.83
2018-06-30T04:08:26.978Z,992.8
2018-06-30T04:09:37.041Z,992.77
2018-06-30T04:10:46.842Z,992.82
2018-06-30T04:11:57.126Z,992.84
2018-06-30T04:13:06.678Z,992.83
2018-06-30T04:14:16.752Z,992.83
2018-06-30T04:15:26.880Z,992.87
2018-06-30T04:16:36.938Z,992.85
2018-06-30T04:17:47.007Z,992.87
2018-06-30T04:18:57.068Z,992.9
2018-06-30T04:20:07.156Z,992.91
2018-06-30T04:21:16.953Z,992.92
2018-06-30T04:22:27.045Z,992.9
2018-06-30T04:23:36.850Z,992.87
2018-06-30T04:24:46.943Z,992.86
2018-06-30T04:25:57.012Z,992.87
2018-06-30T04:27:07.076Z,992.87
2018-06-30T04:28:16.885Z,992.85
2018-06-30T04:29:26.958Z,992.86
2018-06-30T04:30:37.033Z,992.9
2018-06-30T04:31:46.843Z,992.89
2018-06-30T04:32:56.945Z,992.92
2018-06-30T04:34:06.512Z,993.37
2018-06-30T04:35:16.062Z,993.38
2018-06-30T04:36:26.114Z,993.41
2018-06-30T04:37:36.178Z,993.43
2018-06-30T04:38:46.279Z,993.37
2018-06-30T04:39:56.108Z,993.34
2018-06-30T04:41:06.203Z,993.3
2018-06-30T04:42:16.264Z,993.29
2018-06-30T04:43:26.341Z,993.24
2018-06-30T04:44:36.150Z,993.25
2018-06-30T04:45:46.249Z,993.23
2018-06-30T04:46:56.058Z,993.18
2018-06-30T04:48:06.138Z,993.24
2018-06-30T04:49:15.953Z,993.22
2018-06-30T04:50:25.792Z,993.19
2018-06-30T04:51:35.845Z,993.24
2018-06-30T04:52:45.944Z,993.28
2018-06-30T04:53:56.023Z,993.03
2018-06-30T04:55:06.107Z,993.3
2018-06-30T04:56:16.181Z,993.37
2018-06-30T04:57:26.261Z,993.33
2018-06-30T04:58:36.583Z,993.29
2018-06-30T04:59:46.646Z,993.36
2018-06-30T05:00:56.727Z,993.45
2018-06-30T05:02:06.813Z,993.49
2018-06-30T05:03:16.888Z,993.51
2018-06-30T05:04:26.959Z,993.55
2018-06-30T05:05:37.034Z,993.54
2018-06-30T05:06:46.850Z,993.52
2018-06-30T05:07:56.985Z,993.49
2018-06-30T05:09:07.049Z,993.49
2018-06-30T05:10:16.872Z,993.5
2018-06-30T05:11:26.944Z,993.53
2018-06-30T05:12:36.813Z,993.2
2018-06-30T05:13:47.040Z,993.24
2018-06-30T05:14:57.129Z,993.35
2018-06-30T05:16:07.191Z,993.49
2018-06-30T05:17:17.270Z,993.51
2018-06-30T05:18:27.334Z,993.51
2018-06-30T05:19:37.456Z,993.54
2018-06-30T05:20:47.527Z,993.15
2018-06-30T05:21:57.319Z,993.14
2018-06-30T05:23:07.413Z,993.52
2018-06-30T05:24:17.503Z,993.15
2018-06-30T05:25:27.632Z,993.15
2018-06-30T05:26:37.460Z,993.2
2018-06-30T05:27:47.276Z,993.26
2018-06-30T05:28:57.088Z,993.29
2018-06-30T05:30:06.913Z,993.35
2018-06-30T05:31:16.994Z,993.36
2018-06-30T05:32:27.073Z,993.37
2018-06-30T05:33:37.359Z,993.44
2018-06-30T05:34:48.173Z,993.38
2018-06-30T05:35:57.716Z,993.36
2018-06-30T05:37:07.525Z,993.37
2018-06-30T05:38:17.063Z,993.36
2018-06-30T05:39:27.132Z,993.35
2018-06-30T05:40:37.219Z,993.37
2018-06-30T05:41:47.033Z,993.43
2018-06-30T05:42:56.845Z,993.44
2018-06-30T05:44:06.680Z,993.36
2018-06-30T05:45:16.758Z,993.36
2018-06-30T05:46:27.084Z,993.42
2018-06-30T05:47:36.897Z,993.54
2018-06-30T05:48:46.973Z,994.25
2018-06-30T05:49:56.809Z,994.27
2018-06-30T05:51:06.901Z,994.2
2018-06-30T05:52:16.978Z,993.6
2018-06-30T05:53:27.061Z,994.05
2018-06-30T05:54:37.120Z,993.57
2018-06-30T05:55:47.214Z,993.72
2018-06-30T05:56:57.295Z,993.72
2018-06-30T05:58:07.372Z,993.7
2018-06-30T05:59:17.257Z,993.69
2018-06-30T06:00:27.244Z,993.69
2018-06-30T06:01:37.327Z,994.28
2018-06-30T06:02:47.405Z,994.29
2018-06-30T06:03:57.227Z,994.18
2018-06-30T06:05:07.376Z,994.18
2018-06-30T06:06:17.179Z,994.24
2018-06-30T06:07:27.240Z,993.83
2018-06-30T06:08:37.321Z,993.8
2018-06-30T06:09:47.497Z,993.69
2018-06-30T06:10:58.124Z,993.81
2018-06-30T06:12:08.200Z,993.79
2018-06-30T06:13:18.282Z,993.84
2018-06-30T06:14:28.390Z,993.88
2018-06-30T06:15:38.468Z,994.08
2018-06-30T06:16:48.551Z,993.76
2018-06-30T06:17:58.119Z,993.8
2018-06-30T06:19:07.938Z,993.76
2018-06-30T06:20:18.030Z,993.81
2018-06-30T06:21:27.831Z,993.8
2018-06-30T06:22:37.914Z,993.76
2018-06-30T06:23:47.992Z,993.78
2018-06-30T06:24:57.797Z,993.79
2018-06-30T06:26:07.949Z,993.83
2018-06-30T06:27:18.023Z,994.17
2018-06-30T06:28:28.302Z,994.18
2018-06-30T06:29:38.476Z,993.95
2018-06-30T06:30:48.539Z,993.93
2018-06-30T06:31:58.611Z,993.92
2018-06-30T06:33:08.692Z,993.9
2018-06-30T06:34:18.797Z,994.02
2018-06-30T06:35:28.674Z,994.13
2018-06-30T06:36:38.768Z,994.22
2018-06-30T06:37:49.070Z,993.93
2018-06-30T06:38:58.867Z,993.97
2018-06-30T06:40:08.949Z,993.92
2018-06-30T06:41:19.018Z,993.98
2018-06-30T06:42:29.111Z,993.94
2018-06-30T06:43:39.194Z,993.93
2018-06-30T06:44:49.022Z,993.93
2018-06-30T06:45:59.101Z,993.96
2018-06-30T06:47:08.978Z,993.97
2018-06-30T06:48:19.056Z,994.02
2018-06-30T06:49:29.133Z,994.1
2018-06-30T06:50:39.225Z,994.13
2018-06-30T06:51:49.027Z,994.15
2018-06-30T06:52:59.159Z,994.18
2018-06-30T06:54:09.259Z,994.14
2018-06-30T06:55:19.080Z,994.18
2018-06-30T06:56:29.231Z,994.22
2018-06-30T06:57:39.327Z,994.28
2018-06-30T06:58:49.413Z,994.3
2018-06-30T06:59:59.487Z,994.35
2018-06-30T07:01:09.548Z,994.3
2018-06-30T07:02:19.662Z,994.27
2018-06-30T07:03:29.754Z,994.25
2018-06-30T07:04:40.141Z,994.23
2018-06-30T07:05:50.226Z,994.34
2018-06-30T07:07:00.314Z,994.31
2018-06-30T07:08:10.242Z,994.24
2018-06-30T07:09:20.322Z,994.28
2018-06-30T07:10:30.451Z,994.3
2018-06-30T07:11:40.551Z,994.33
2018-06-30T07:12:50.619Z,994.23
2018-06-30T07:14:00.420Z,994.2
2018-06-30T07:15:10.151Z,994.22
2018-06-30T07:16:20.227Z,994.26
2018-06-30T07:17:30.039Z,994.26
2018-06-30T07:18:40.102Z,994.36
2018-06-30T07:19:49.927Z,994.36
2018-06-30T07:21:00.024Z,994.39
2018-06-30T07:22:09.847Z,994.38
2018-06-30T07:23:19.942Z,994.4
2018-06-30T07:24:30.047Z,994.4
2018-06-30T07:25:40.398Z,994.4
2018-06-30T07:26:50.283Z,994.37
2018-06-30T07:28:00.366Z,994.35
2018-06-30T07:29:10.440Z,994.35
2018-06-30T07:30:20.532Z,994.35
2018-06-30T07:31:30.609Z,994.41
2018-06-30T07:32:40.708Z,994.41
2018-06-30T07:33:50.799Z,994.39
2018-06-30T07:35:00.609Z,994.42
2018-06-30T07:36:10.434Z,994.38
2018-06-30T07:37:20.527Z,994.42
2018-06-30T07:38:31.006Z,994.45
2018-06-30T07:39:40.818Z,994.43
2018-06-30T07:40:50.893Z,994.45
2018-06-30T07:42:01.161Z,994.43
2018-06-30T07:43:11.270Z,994.46
2018-06-30T07:44:21.965Z,994.47
2018-06-30T07:45:31.791Z,994.51
2018-06-30T07:46:41.889Z,994.52
2018-06-30T07:47:51.974Z,994.49
2018-06-30T07:49:02.289Z,994.53
2018-06-30T07:50:12.202Z,994.52
2018-06-30T07:51:22.596Z,994.49
2018-06-30T07:52:32.673Z,994.49
2018-06-30T07:53:42.513Z,994.55
2018-06-30T07:54:52.601Z,994.57
2018-06-30T07:56:02.438Z,994.57
2018-06-30T07:57:12.520Z,994.55
2018-06-30T07:58:22.090Z,994.49
2018-06-30T07:59:32.174Z,994.52
2018-06-30T08:00:42.274Z,994.59
2018-06-30T08:01:52.122Z,994.61
2018-06-30T08:03:02.328Z,994.63
2018-06-30T08:04:12.613Z,994.68
2018-06-30T08:05:22.710Z,994.73
2018-06-30T08:06:32.799Z,994.76
2018-06-30T08:07:42.922Z,994.79
2018-06-30T08:08:53.049Z,994.8
2018-06-30T08:10:03.174Z,994.75
2018-06-30T08:11:13.501Z,994.81
2018-06-30T08:12:23.316Z,994.8
2018-06-30T08:13:33.420Z,994.71
2018-06-30T08:14:43.529Z,994.73
2018-06-30T08:15:53.610Z,994.76
2018-06-30T08:17:03.468Z,994.86
2018-06-30T08:18:13.563Z,994.87
2018-06-30T08:19:23.645Z,994.87
2018-06-30T08:20:33.506Z,994.96
2018-06-30T08:21:43.335Z,994.95
2018-06-30T08:22:53.440Z,994.95
2018-06-30T08:24:03.547Z,994.86
2018-06-30T08:25:13.624Z,994.91
2018-06-30T08:26:23.789Z,994.85
2018-06-30T08:27:33.888Z,994.84
2018-06-30T08:28:43.726Z,994.86
2018-06-30T08:29:53.797Z,994.86
2018-06-30T08:31:03.889Z,994.9
2018-06-30T08:32:13.996Z,994.93
2018-06-30T08:33:24.111Z,994.95
2018-06-30T08:34:34.196Z,994.96
2018-06-30T08:35:44.282Z,994.96
2018-06-30T08:36:54.359Z,995.02
2018-06-30T08:38:04.444Z,995.02
2018-06-30T08:39:14.508Z,995
2018-06-30T08:40:24.599Z,995.05
2018-06-30T08:41:34.668Z,994.98
2018-06-30T08:42:44.237Z,995.03
2018-06-30T08:43:54.059Z,995.03
2018-06-30T08:45:04.153Z,995.04
2018-06-30T08:46:14.230Z,995.01
2018-06-30T08:47:24.066Z,995.05
2018-06-30T08:48:34.165Z,995.07
2018-06-30T08:49:44.247Z,995.06
2018-06-30T08:50:54.316Z,995.07
2018-06-30T08:52:04.495Z,995.03
2018-06-30T08:53:14.561Z,995.06
2018-06-30T08:54:24.662Z,995.09
2018-06-30T08:55:34.594Z,995.08
2018-06-30T08:56:44.759Z,995.1
2018-06-30T08:57:54.597Z,995.09
2018-06-30T08:59:04.675Z,995.17
2018-06-30T09:00:14.748Z,995.23
2018-06-30T09:01:24.560Z,995.18
2018-06-30T09:02:34.651Z,995.16
2018-06-30T09:03:44.732Z,995.19
2018-06-30T09:04:54.804Z,995.24
2018-06-30T09:06:04.873Z,995.23
2018-06-30T09:07:15.088Z,995.22
2018-06-30T09:08:25.186Z,995.21
2018-06-30T09:09:35.025Z,995.21
2018-06-30T09:10:45.207Z,995.26
2018-06-30T09:11:55.415Z,995.34
2018-06-30T09:13:06.031Z,995.34
2018-06-30T09:14:15.918Z,995.37
2018-06-30T09:15:26.040Z,995.37
2018-06-30T09:16:36.116Z,995.42
2018-06-30T09:17:46.180Z,995.46
2018-06-30T09:18:56.014Z,995.45
2018-06-30T09:20:06.108Z,995.46
2018-06-30T09:21:16.103Z,995.37
2018-06-30T09:22:26.160Z,995.53
2018-06-30T09:23:35.715Z,995.51
2018-06-30T09:24:45.841Z,995.46
2018-06-30T09:25:55.959Z,995.43
2018-06-30T09:27:06.075Z,995.45
2018-06-30T09:28:16.179Z,995.38
2018-06-30T09:29:26.271Z,995.34
2018-06-30T09:30:36.381Z,995.43
2018-06-30T09:31:45.926Z,995.33
2018-06-30T09:32:55.994Z,995.42
2018-06-30T09:34:06.086Z,995.38
2018-06-30T09:35:15.912Z,995.33
2018-06-30T09:36:25.989Z,995.29
2018-06-30T09:37:36.082Z,995.28
2018-06-30T09:38:45.636Z,995.3
2018-06-30T09:39:55.459Z,995.39
2018-06-30T09:41:05.539Z,995.37
2018-06-30T09:42:15.628Z,995.28
2018-06-30T09:43:25.710Z,995.27
2018-06-30T09:44:35.865Z,995.28
2018-06-30T09:45:46.283Z,995.27
2018-06-30T09:46:56.114Z,995.3
2018-06-30T09:48:05.673Z,995.37
2018-06-30T09:49:15.780Z,995.38
2018-06-30T09:50:25.880Z,995.3
2018-06-30T09:51:35.957Z,995.24
2018-06-30T09:52:46.035Z,995.2
2018-06-30T09:53:55.591Z,995.33
2018-06-30T09:55:05.394Z,995.33
2018-06-30T09:56:15.474Z,995.32
2018-06-30T09:57:25.578Z,995.33
2018-06-30T09:58:35.394Z,995.35
2018-06-30T09:59:45.480Z,995.33
2018-06-30T10:00:55.553Z,995.32
2018-06-30T10:02:05.623Z,995.37
2018-06-30T10:03:15.440Z,995.3
2018-06-30T10:04:25.518Z,995.29
2018-06-30T10:05:35.417Z,995.33
2018-06-30T10:06:45.527Z,995.33
2018-06-30T10:07:56.036Z,995.32
2018-06-30T10:09:06.257Z,995.31
2018-06-30T10:10:16.729Z,995.28
2018-06-30T10:11:26.590Z,995.28
2018-06-30T10:12:36.423Z,995.25
2018-06-30T10:13:46.899Z,995.26
2018-06-30T10:14:57.035Z,995.27
2018-06-30T10:16:06.865Z,995.34
2018-06-30T10:17:17.119Z,995.32
2018-06-30T10:18:26.955Z,995.32
2018-06-30T10:19:37.108Z,995.2
2018-06-30T10:20:47.233Z,995.24
2018-06-30T10:21:57.344Z,995.3
2018-06-30T10:23:07.460Z,995.32
2018-06-30T10:24:17.561Z,995.23
2018-06-30T10:25:27.433Z,995.17
2018-06-30T10:26:37.510Z,995.29
2018-06-30T10:27:47.601Z,995.31
2018-06-30T10:28:57.685Z,995.22
2018-06-30T10:30:07.770Z,995.22
2018-06-30T10:31:17.891Z,995.2
2018-06-30T10:32:28.295Z,995.19
2018-06-30T10:33:38.116Z,995.21
2018-06-30T10:34:48.242Z,995.31
2018-06-30T10:35:58.398Z,995.3
2018-06-30T10:37:08.486Z,995.28
2018-06-30T10:38:18.338Z,995.28
2018-06-30T10:39:28.471Z,995.17
2018-06-30T10:40:38.656Z,995.2
2018-06-30T10:41:48.741Z,995.24
2018-06-30T10:42:58.862Z,995.33
2018-06-30T10:44:08.691Z,995.26
2018-06-30T10:45:18.503Z,995.25
2018-06-30T10:46:28.587Z,995.25
2018-06-30T10:47:38.782Z,995.19
2018-06-30T10:48:48.880Z,995.11
2018-06-30T10:49:58.722Z,995.15
2018-06-30T10:51:08.829Z,995.35
2018-06-30T10:52:18.903Z,995.24
2018-06-30T10:53:30.539Z,995.18
2018-06-30T10:54:40.622Z,995
2018-06-30T10:55:50.716Z,995.17
2018-06-30T10:57:00.632Z,995.21
2018-06-30T10:58:10.718Z,995.23
2018-06-30T10:59:20.815Z,995.24
2018-06-30T11:00:31.207Z,995.25
2018-06-30T11:01:41.033Z,995.26
2018-06-30T11:02:50.857Z,995.23
2018-06-30T11:04:00.782Z,995.23
2018-06-30T11:05:11.144Z,995.24
2018-06-30T11:06:21.896Z,995.2
2018-06-30T11:07:31.986Z,995.18
2018-06-30T11:08:42.061Z,995.2
2018-06-30T11:09:52.147Z,995.12
2018-06-30T11:11:02.108Z,995.18
2018-06-30T11:12:12.521Z,995.21
2018-06-30T11:13:22.097Z,995.19
2018-06-30T11:14:32.201Z,995.2
2018-06-30T11:15:42.048Z,995.23
2018-06-30T11:16:52.141Z,995.36
2018-06-30T11:18:01.971Z,995.22
2018-06-30T11:19:11.800Z,995.22
2018-06-30T11:20:21.632Z,995.23
2018-06-30T11:21:31.716Z,995.21
2018-06-30T11:22:41.783Z,995.24
2018-06-30T11:23:51.891Z,995.17
2018-06-30T11:25:01.976Z,995.11
2018-06-30T11:26:11.874Z,995.11
2018-06-30T11:27:21.965Z,995.23
2018-06-30T11:28:31.855Z,995.22
2018-06-30T11:29:41.945Z,995.45
2018-06-30T11:30:52.055Z,995.23
2018-06-30T11:32:01.904Z,995.18
2018-06-30T11:33:11.984Z,995.18
2018-06-30T11:34:21.813Z,995.37
2018-06-30T11:35:31.416Z,995.22
2018-06-30T11:36:41.501Z,995.23
2018-06-30T11:37:51.628Z,995.28
2018-06-30T11:39:01.732Z,995.2
2018-06-30T11:40:11.914Z,995.25
2018-06-30T11:41:22.027Z,995.18
2018-06-30T11:42:32.117Z,995.17
2018-06-30T11:43:42.197Z,995.14
2018-06-30T11:44:52.289Z,995.27
2018-06-30T11:46:02.416Z,995.19
2018-06-30T11:47:12.232Z,995.16
2018-06-30T11:48:22.069Z,995.18
2018-06-30T11:49:31.894Z,995.35
2018-06-30T11:50:41.976Z,995.2
2018-06-30T11:51:52.110Z,995.2
2018-06-30T11:53:01.997Z,995.22
2018-06-30T11:54:12.092Z,995.26
2018-06-30T11:55:22.187Z,995.26
2018-06-30T11:56:32.278Z,995.18
2018-06-30T11:57:42.414Z,995.23
2018-06-30T11:58:52.237Z,995.18
2018-06-30T12:00:02.582Z,995.16
2018-06-30T12:01:12.429Z,995.18
2018-06-30T12:02:22.509Z,995.17
2018-06-30T12:03:32.653Z,995.21
2018-06-30T12:04:43.157Z,995.24
2018-06-30T12:05:53.252Z,995.22
2018-06-30T12:07:03.350Z,995.23
2018-06-30T12:08:13.444Z,995.22
2018-06-30T12:09:23.624Z,995.14
2018-06-30T12:10:33.930Z,995.13
2018-06-30T12:11:44.023Z,995.28
2018-06-30T12:12:54.116Z,995.22
2018-06-30T12:14:04.204Z,995.28
2018-06-30T12:15:14.313Z,995.24
2018-06-30T12:16:24.601Z,995.21
2018-06-30T12:17:34.690Z,995.32
2018-06-30T12:18:44.787Z,995.19
2018-06-30T12:19:54.889Z,995.23
2018-06-30T12:21:04.729Z,995.2
2018-06-30T12:22:14.872Z,995.16
2018-06-30T12:23:24.953Z,995.22
2018-06-30T12:24:35.035Z,995.2
2018-06-30T12:25:45.133Z,995.21
2018-06-30T12:26:55.232Z,995.14
2018-06-30T12:28:05.046Z,995.18
2018-06-30T12:29:14.616Z,995.26
2018-06-30T12:30:24.744Z,995.23
2018-06-30T12:31:35.041Z,995.23
2018-06-30T12:32:45.157Z,995.18
2018-06-30T12:33:55.283Z,995.16
2018-06-30T12:35:05.677Z,995.3
2018-06-30T12:36:15.773Z,995.27
2018-06-30T12:37:25.869Z,995.37
2018-06-30T12:38:35.959Z,995.26
2018-06-30T12:39:46.069Z,995.23
2018-06-30T12:40:56.140Z,995.24
2018-06-30T12:42:05.973Z,995.3
2018-06-30T12:43:15.807Z,995.37
2018-06-30T12:44:25.931Z,995.31
2018-06-30T12:45:36.078Z,995.33
2018-06-30T12:46:46.159Z,995.39
2018-06-30T12:47:55.978Z,995.29
2018-06-30T12:49:06.100Z,995.37
2018-06-30T12:50:16.189Z,995.31
2018-06-30T12:51:26.322Z,995.3
2018-06-30T12:52:36.404Z,995.28
2018-06-30T12:53:46.502Z,995.29
2018-06-30T12:54:56.698Z,995.32
2018-06-30T12:56:06.890Z,995.33
2018-06-30T12:57:17.293Z,995.37
2018-06-30T12:58:27.392Z,995.34
2018-06-30T12:59:36.971Z,995.37
2018-06-30T13:00:47.064Z,995.43
2018-06-30T13:01:56.959Z,995.4
2018-06-30T13:03:07.058Z,995.34
2018-06-30T13:04:17.164Z,995.35
2018-06-30T13:05:27.275Z,995.41
2018-06-30T13:06:37.384Z,995.37
2018-06-30T13:07:47.496Z,995.41
2018-06-30T13:08:57.639Z,995.45
2018-06-30T13:10:07.546Z,995.56
2018-06-30T13:11:17.631Z,995.44
2018-06-30T13:12:27.747Z,995.48
2018-06-30T13:13:37.839Z,995.5
2018-06-30T13:14:47.934Z,995.51
2018-06-30T13:15:58.051Z,995.59
2018-06-30T13:17:08.154Z,995.52
2018-06-30T13:18:18.240Z,995.52
2018-06-30T13:19:28.318Z,995.51
2018-06-30T13:20:38.471Z,995.52
2018-06-30T13:21:48.561Z,995.54
2018-06-30T13:22:58.651Z,995.55
2018-06-30T13:24:08.646Z,995.55
2018-06-30T13:25:18.494Z,995.53
2018-06-30T13:26:28.562Z,995.51
2018-06-30T13:27:38.425Z,995.52
2018-06-30T13:28:48.634Z,995.57
2018-06-30T13:29:58.985Z,995.55
2018-06-30T13:31:09.129Z,995.61
2018-06-30T13:32:19.280Z,995.58
2018-06-30T13:33:29.387Z,995.65
2018-06-30T13:34:39.207Z,995.51
2018-06-30T13:35:49.320Z,995.53
2018-06-30T13:36:59.426Z,995.58
2018-06-30T13:38:09.289Z,995.53
2018-06-30T13:39:19.370Z,995.7
2018-06-30T13:40:29.489Z,995.61
2018-06-30T13:41:39.646Z,995.73
2018-06-30T13:42:49.498Z,995.63
2018-06-30T13:43:59.594Z,995.63
2018-06-30T13:45:09.697Z,995.64
2018-06-30T13:46:19.537Z,995.64
2018-06-30T13:47:29.258Z,995.7
2018-06-30T13:48:39.368Z,995.59
2018-06-30T13:49:49.462Z,995.86
2018-06-30T13:50:59.553Z,995.67
2018-06-30T13:52:09.650Z,995.73
2018-06-30T13:53:19.542Z,995.68
2018-06-30T13:54:29.630Z,995.68
2018-06-30T13:55:39.763Z,995.88
2018-06-30T13:56:49.828Z,995.83
2018-06-30T13:57:59.908Z,995.77
2018-06-30T13:59:10.022Z,995.76
2018-06-30T14:00:19.595Z,995.74
2018-06-30T14:01:29.685Z,995.71
2018-06-30T14:02:39.802Z,995.66
2018-06-30T14:03:49.907Z,995.68
2018-06-30T14:05:00.011Z,995.73
2018-06-30T14:06:10.135Z,995.7
2018-06-30T14:07:20.313Z,995.7
2018-06-30T14:08:30.416Z,995.72
2018-06-30T14:09:40.517Z,995.7
2018-06-30T14:10:50.344Z,995.71
2018-06-30T14:12:00.423Z,995.7
2018-06-30T14:13:10.826Z,995.72
2018-06-30T14:14:20.946Z,995.76
2018-06-30T14:15:30.823Z,995.67
2018-06-30T14:16:40.910Z,995.7
2018-06-30T14:18:10.229Z,995.73
2018-06-30T14:19:20.715Z,995.79
2018-06-30T14:20:30.552Z,995.81
2018-06-30T14:21:40.644Z,995.76
2018-06-30T14:22:50.720Z,995.72
2018-06-30T14:24:00.869Z,995.73
2018-06-30T14:25:10.715Z,995.83
2018-06-30T14:26:20.816Z,995.79
2018-06-30T14:27:30.907Z,995.79
2018-06-30T14:28:41.137Z,995.78
2018-06-30T14:29:51.275Z,995.81
2018-06-30T14:31:01.357Z,995.88
2018-06-30T14:32:11.458Z,995.89
2018-06-30T14:33:21.562Z,995.92
2018-06-30T14:34:31.704Z,995.91
2018-06-30T14:35:41.797Z,995.9
2018-06-30T14:36:51.885Z,996.01
2018-06-30T14:38:01.978Z,996
2018-06-30T14:39:12.321Z,995.96
2018-06-30T14:40:22.148Z,996.04
2018-06-30T14:41:32.226Z,996.01
2018-06-30T14:42:42.317Z,996
2018-06-30T14:43:52.474Z,995.99
2018-06-30T14:45:02.601Z,996.01
2018-06-30T14:46:12.429Z,996.05
2018-06-30T14:47:22.569Z,996
2018-06-30T14:48:32.118Z,996.01
2018-06-30T14:49:42.204Z,996
2018-06-30T14:50:52.320Z,995.96
2018-06-30T14:52:02.425Z,996.05
2018-06-30T14:53:12.255Z,996.1
2018-06-30T14:54:22.340Z,996.09
2018-06-30T14:55:32.445Z,996.11
2018-06-30T14:56:42.518Z,996.1
2018-06-30T14:57:52.364Z,996.14
2018-06-30T14:59:02.477Z,996.09
2018-06-30T15:00:12.561Z,996.12
2018-06-30T15:01:22.652Z,996.13
2018-06-30T15:02:32.481Z,996.1
2018-06-30T15:03:42.566Z,996.05
2018-06-30T15:04:52.663Z,996.16
2018-06-30T15:06:02.495Z,996.07
2018-06-30T15:07:12.646Z,996.19
2018-06-30T15:08:22.971Z,996.1